Time;durP1;ratioP1;P1;durP2;ratioP2;P2;SDS_P1;SDS_P2;PMS_P1;PMS_P2;Temp;Humidity;BMP_temperature;BMP_pressure;BME280_temperature;BME280_humidity;BME280_pressure;Samples;Min_cycle;Max_cycle;Signal;HPM_P1;HPM_P2
2023/07/26 00:00:05;;;;;;;6.43;5.68;;;;;;;16.35;69.32;96842.78;4920799;28;20523;-80
2023/07/26 00:02:31;;;;;;;9.32;6.93;;;;;;;16.33;69.48;96852.78;4907605;28;21726;-80
2023/07/26 00:04:57;;;;;;;7.45;5.88;;;;;;;16.22;69.36;96848.78;4942667;28;20400;-80
2023/07/26 00:07:22;;;;;;;6.97;6.32;;;;;;;16.19;69.93;96852.75;4936851;28;20456;-80
2023/07/26 00:09:48;;;;;;;6.75;5.88;;;;;;;16.12;69.70;96844.44;4909280;28;20323;-81
2023/07/26 00:12:13;;;;;;;5.82;5.32;;;;;;;16.02;69.11;96847.25;4924638;28;20377;-81
2023/07/26 00:14:42;;;;;;;8.02;6.18;;;;;;;16.04;69.84;96845.91;4903321;28;20241;-80
2023/07/26 00:17:07;;;;;;;8.43;6.00;;;;;;;15.89;69.90;96833.78;4939063;28;20401;-81
2023/07/26 00:19:33;;;;;;;6.85;6.15;;;;;;;15.85;70.06;96838.06;4926502;28;20535;-80
2023/07/26 00:21:58;;;;;;;6.60;5.68;;;;;;;15.76;69.51;96839.75;4922406;28;20449;-80
2023/07/26 00:24:23;;;;;;;5.95;5.35;;;;;;;15.72;70.02;96844.78;4926437;28;20418;-81
2023/07/26 00:26:49;;;;;;;7.00;6.13;;;;;;;15.67;69.28;96857.97;4942925;28;20298;-80
2023/07/26 00:29:14;;;;;;;6.75;5.88;;;;;;;15.69;69.40;96860.31;4925522;28;20212;-81
2023/07/26 00:31:41;;;;;;;6.63;5.75;;;;;;;15.52;69.48;96855.56;4940747;28;20198;-80
2023/07/26 00:34:06;;;;;;;6.82;5.93;;;;;;;15.52;70.19;96866.06;4923049;28;20258;-81
2023/07/26 00:36:35;;;;;;;6.57;5.97;;;;;;;15.50;69.77;96862.94;4944941;28;20330;-80
2023/07/26 00:39:00;;;;;;;7.10;6.40;;;;;;;15.41;70.58;96870.69;4910782;28;20352;-80
2023/07/26 00:41:26;;;;;;;11.00;6.40;;;;;;;15.29;70.49;96862.44;4924275;28;20441;-80
2023/07/26 00:43:55;;;;;;;6.70;6.00;;;;;;;15.34;70.31;96862.38;4904631;28;20144;-79
2023/07/26 00:46:20;;;;;;;7.13;6.43;;;;;;;15.23;70.77;96864.34;4927970;28;20322;-80
2023/07/26 00:48:46;;;;;;;6.82;6.10;;;;;;;15.32;69.66;96862.66;4907705;28;20363;-80
2023/07/26 00:51:12;;;;;;;7.90;5.85;;;;;;;15.32;69.57;96867.13;4940934;28;20492;-80
2023/07/26 00:53:37;;;;;;;8.15;6.30;;;;;;;15.46;69.38;96873.22;4908196;28;20196;-81
2023/07/26 00:56:03;;;;;;;6.72;5.97;;;;;;;15.59;69.09;96865.72;4923175;28;20689;-81
2023/07/26 00:58:29;;;;;;;9.15;6.05;;;;;;;15.65;68.48;96859.34;4923661;28;20371;-81
2023/07/26 01:00:55;;;;;;;6.47;5.88;;;;;;;15.75;68.36;96864.47;4908487;28;20385;-81
2023/07/26 01:03:20;;;;;;;8.23;6.20;;;;;;;15.79;68.42;96869.94;4956386;22;20294;-86
2023/07/26 01:06:01;;;;;;;7.22;6.32;;;;;;;15.84;68.48;96873.25;4947402;28;20472;-86
2023/07/26 01:08:45;;;;;;;6.72;6.10;;;;;;;15.71;68.36;96874.72;4967408;28;20203;-86
2023/07/26 01:11:23;;;;;;;6.60;5.80;;;;;;;15.74;68.15;96871.50;4950327;28;20160;-86
2023/07/26 01:14:06;;;;;;;7.88;6.35;;;;;;;15.60;68.24;96859.41;4949755;28;20454;-86
2023/07/26 01:16:32;;;;;;;6.45;5.82;;;;;;;15.56;68.42;96872.31;4979254;28;20219;-85
2023/07/26 01:18:58;;;;;;;7.05;6.15;;;;;;;15.45;68.04;96874.28;4932868;28;20172;-85
2023/07/26 01:21:23;;;;;;;6.28;5.68;;;;;;;15.33;68.12;96866.81;4927241;28;20535;-85
2023/07/26 01:23:48;;;;;;;7.57;5.82;;;;;;;15.28;68.19;96874.00;4965563;28;20489;-86
2023/07/26 01:26:14;;;;;;;7.80;6.35;;;;;;;15.16;67.69;96867.31;4950875;28;20209;-85
2023/07/26 01:28:39;;;;;;;6.07;5.18;;;;;;;15.19;68.63;96879.06;4964168;28;20344;-86
2023/07/26 01:31:06;;;;;;;5.80;5.20;;;;;;;15.16;68.36;96875.19;4931749;28;20400;-86
2023/07/26 01:33:32;;;;;;;6.28;5.55;;;;;;;15.05;67.99;96867.72;4950094;28;20178;-86
2023/07/26 01:35:59;;;;;;;5.97;5.38;;;;;;;14.98;68.55;96868.06;4936570;28;20368;-86
2023/07/26 01:38:25;;;;;;;8.07;5.43;;;;;;;15.03;68.75;96878.50;4924095;28;20182;-87
2023/07/26 01:40:50;;;;;;;6.75;5.72;;;;;;;14.98;68.82;96871.47;4949322;28;20260;-86
2023/07/26 01:43:24;;;;;;;9.30;6.47;;;;;;;14.98;69.06;96878.53;4951170;28;20199;-87
2023/07/26 01:45:50;;;;;;;7.15;6.32;;;;;;;14.74;68.60;96857.59;4948701;28;20232;-87
2023/07/26 01:48:15;;;;;;;6.70;5.45;;;;;;;14.75;67.98;96865.16;4949380;28;20282;-86
2023/07/26 01:50:40;;;;;;;7.53;6.07;;;;;;;14.84;68.65;96880.25;4970326;28;20401;-86
2023/07/26 01:53:06;;;;;;;7.00;6.30;;;;;;;14.71;68.72;96852.88;4934943;28;20276;-86
2023/07/26 01:55:31;;;;;;;7.57;6.10;;;;;;;14.74;68.84;96874.06;4949954;28;20666;-86
2023/07/26 01:57:56;;;;;;;7.43;6.43;;;;;;;14.76;68.57;96881.66;4950384;28;20242;-86
2023/07/26 02:00:22;;;;;;;7.90;6.00;;;;;;;14.64;69.00;96868.94;4950002;28;20178;-86
2023/07/26 02:02:47;;;;;;;6.95;6.07;;;;;;;14.78;69.04;96885.56;4948982;28;20132;-88
2023/07/26 02:05:13;;;;;;;6.97;6.28;;;;;;;14.70;68.62;96873.09;4930702;28;20199;-86
2023/07/26 02:07:38;;;;;;;7.40;6.22;;;;;;;14.77;69.63;96884.00;4914998;28;20296;-87
2023/07/26 02:10:04;;;;;;;9.52;7.10;;;;;;;14.74;68.98;96884.56;4946589;28;20071;-87
2023/07/26 02:12:30;;;;;;;8.40;7.10;;;;;;;14.65;68.67;96875.75;4946061;28;20508;-87
2023/07/26 02:14:55;;;;;;;7.75;6.55;;;;;;;14.66;69.14;96882.53;4918131;28;20304;-86
2023/07/26 02:17:20;;;;;;;7.90;6.38;;;;;;;14.64;69.66;96884.66;4914139;28;20211;-86
2023/07/26 02:19:46;;;;;;;7.93;6.60;;;;;;;14.73;69.87;96903.94;4944443;28;20172;-87
2023/07/26 02:22:11;;;;;;;9.75;7.65;;;;;;;14.75;69.24;96904.47;4930579;28;20029;-87
2023/07/26 02:24:37;;;;;;;8.27;7.32;;;;;;;14.76;69.28;96908.66;4948307;28;20396;-87
2023/07/26 02:27:02;;;;;;;9.38;7.00;;;;;;;14.75;69.33;96891.38;4919430;28;20223;-87
2023/07/26 02:29:28;;;;;;;8.30;7.32;;;;;;;14.67;69.42;96878.88;4935452;28;20302;-86
2023/07/26 02:31:53;;;;;;;8.68;7.22;;;;;;;14.84;69.84;96894.16;4948127;28;20165;-86
2023/07/26 02:34:18;;;;;;;8.35;7.40;;;;;;;14.79;69.25;96881.88;4965713;28;20569;-87
2023/07/26 02:36:44;;;;;;;9.75;7.95;;;;;;;14.72;70.49;96894.53;4934647;28;20311;-87
2023/07/26 02:39:09;;;;;;;7.95;7.15;;;;;;;14.65;70.09;96901.97;4919587;28;20215;-87
2023/07/26 02:41:35;;;;;;;10.13;7.97;;;;;;;14.55;70.32;96887.06;4936614;28;20192;-87
2023/07/26 02:44:00;;;;;;;10.30;7.72;;;;;;;14.54;71.11;96892.59;4932991;28;20586;-87
2023/07/26 02:46:26;;;;;;;9.95;7.93;;;;;;;14.57;70.46;96898.06;4930980;28;20270;-86
2023/07/26 02:48:51;;;;;;;9.50;7.60;;;;;;;14.57;70.73;96902.53;4933719;28;20252;-87
2023/07/26 02:51:16;;;;;;;7.03;6.30;;;;;;;14.62;71.09;96907.75;4953370;28;20238;-87
2023/07/26 02:53:42;;;;;;;10.43;7.82;;;;;;;14.61;70.42;96906.16;4950251;28;20227;-86
2023/07/26 02:56:07;;;;;;;9.05;7.30;;;;;;;14.66;71.06;96910.59;4932176;28;20513;-86
2023/07/26 02:58:33;;;;;;;10.73;8.25;;;;;;;14.55;70.71;96897.56;4950660;28;20572;-87
2023/07/26 03:00:58;;;;;;;10.23;8.57;;;;;;;14.67;70.15;96910.31;4931619;28;20351;-87
2023/07/26 03:03:23;;;;;;;9.63;7.68;;;;;;;14.61;70.01;96900.94;4938712;28;20367;-88
2023/07/26 03:05:49;;;;;;;10.68;8.65;;;;;;;14.57;70.45;96907.75;4937935;28;20444;-87
2023/07/26 03:08:14;;;;;;;10.57;8.52;;;;;;;14.60;70.11;96909.88;4945403;28;20181;-87
2023/07/26 03:10:40;;;;;;;10.40;9.20;;;;;;;14.59;70.83;96911.69;4952919;28;20228;-87
2023/07/26 03:13:05;;;;;;;11.25;8.32;;;;;;;14.64;70.64;96905.63;4938449;28;20274;-87
2023/07/26 03:15:31;;;;;;;14.43;10.07;;;;;;;14.64;70.40;96917.97;4935663;28;20022;-87
2023/07/26 03:17:57;;;;;;;11.82;9.23;;;;;;;14.64;70.39;96905.63;4958662;28;20200;-87
2023/07/26 03:20:22;;;;;;;13.27;10.85;;;;;;;14.66;70.51;96913.22;4937039;28;20422;-87
2023/07/26 03:22:47;;;;;;;12.00;10.68;;;;;;;14.66;70.99;96913.97;4949283;28;20823;-86
2023/07/26 03:25:13;;;;;;;16.63;11.80;;;;;;;14.60;70.99;96904.63;4917043;28;20602;-86
2023/07/26 03:27:38;;;;;;;12.68;10.93;;;;;;;14.66;71.28;96910.59;4940951;28;20231;-86
2023/07/26 03:30:04;;;;;;;15.05;10.95;;;;;;;14.66;70.63;96898.25;4951041;28;20098;-88
2023/07/26 03:32:30;;;;;;;14.40;10.70;;;;;;;14.73;70.23;96914.44;4922453;28;20188;-86
2023/07/26 03:34:55;;;;;;;16.88;11.80;;;;;;;14.72;70.44;96917.34;4955797;28;20200;-87
2023/07/26 03:37:21;;;;;;;16.23;11.85;;;;;;;14.55;71.01;96886.31;4960303;28;20097;-86
2023/07/26 03:39:46;;;;;;;14.57;10.93;;;;;;;14.68;70.56;96901.38;4953468;28;20253;-86
2023/07/26 03:42:11;;;;;;;16.17;12.05;;;;;;;14.76;70.97;96931.47;4955075;28;20299;-87
2023/07/26 03:44:37;;;;;;;15.38;11.48;;;;;;;14.62;70.20;96899.88;4956827;28;20538;-88
2023/07/26 03:47:27;;;;;;;14.52;11.23;;;;;;;14.89;69.94;96928.19;4941436;28;20187;-87
2023/07/26 03:49:52;;;;;;;13.85;11.38;;;;;;;14.84;70.52;96923.00;4918331;28;20199;-87
2023/07/26 03:52:18;;;;;;;15.73;11.57;;;;;;;14.85;70.16;96921.16;4937370;28;20326;-87
2023/07/26 03:54:44;;;;;;;13.52;10.73;;;;;;;14.86;70.26;96920.09;4955209;28;20098;-87
2023/07/26 03:57:09;;;;;;;11.63;9.93;;;;;;;14.67;69.93;96894.59;4950180;28;20390;-87
2023/07/26 03:59:35;;;;;;;14.07;11.43;;;;;;;14.88;71.01;96933.72;4923283;28;20103;-88
2023/07/26 04:02:00;;;;;;;14.73;9.80;;;;;;;14.95;69.92;96936.78;4923117;28;20098;-87
2023/07/26 04:04:25;;;;;;;11.25;9.38;;;;;;;14.89;69.81;96928.19;4934167;28;20247;-87
2023/07/26 04:06:51;;;;;;;12.02;10.45;;;;;;;14.89;71.03;96940.50;4936532;28;20200;-86
2023/07/26 04:09:16;;;;;;;14.05;10.13;;;;;;;14.87;70.98;96937.38;4942715;28;20637;-88
2023/07/26 04:11:42;;;;;;;10.88;9.18;;;;;;;14.98;70.12;96946.72;4938114;28;20204;-87
2023/07/26 04:14:07;;;;;;;11.18;9.40;;;;;;;14.93;70.62;96942.28;4957300;28;20264;-88
2023/07/26 04:16:35;;;;;;;13.13;10.32;;;;;;;14.72;70.79;96930.44;4954815;28;20460;-86
2023/07/26 04:19:00;;;;;;;11.50;10.32;;;;;;;14.93;70.72;96952.00;4955218;28;20293;-87
2023/07/26 04:21:26;;;;;;;11.82;10.55;;;;;;;14.83;70.97;96944.25;4952962;28;20379;-86
2023/07/26 04:23:51;;;;;;;12.65;10.88;;;;;;;14.85;71.38;96947.38;4923513;28;20412;-86
2023/07/26 04:26:16;;;;;;;14.50;10.85;;;;;;;14.99;70.21;96958.75;4956036;28;20347;-87
2023/07/26 04:28:42;;;;;;;12.77;9.85;;;;;;;15.04;70.79;96953.44;4935773;28;20306;-86
2023/07/26 04:31:07;;;;;;;12.82;11.20;;;;;;;15.04;70.19;96957.91;4935724;28;20187;-87
2023/07/26 04:33:33;;;;;;;11.70;10.43;;;;;;;15.11;69.80;96966.22;4934568;28;20335;-87
2023/07/26 04:35:58;;;;;;;11.48;9.88;;;;;;;14.97;70.55;96940.66;4930274;28;20272;-86
2023/07/26 04:38:25;;;;;;;11.85;9.90;;;;;;;15.13;70.02;96964.09;4925903;28;20581;-86
2023/07/26 04:40:50;;;;;;;10.20;8.70;;;;;;;15.15;69.49;96969.88;4930880;28;20198;-86
2023/07/26 04:43:16;;;;;;;9.80;8.20;;;;;;;15.09;70.56;96963.88;4942063;28;20287;-86
2023/07/26 04:45:42;;;;;;;11.10;8.43;;;;;;;15.23;69.13;96960.59;4928328;28;20293;-85
2023/07/26 04:48:08;;;;;;;9.93;8.48;;;;;;;15.11;69.44;96961.78;4928316;28;20282;-86
2023/07/26 04:50:33;;;;;;;9.10;8.07;;;;;;;15.24;69.48;96975.28;4924892;28;20227;-86
2023/07/26 04:52:59;;;;;;;8.63;7.75;;;;;;;15.12;69.88;96973.06;4927299;28;20388;-86
2023/07/26 04:55:24;;;;;;;7.13;6.43;;;;;;;15.03;69.48;96969.47;4911483;28;20215;-86
2023/07/26 04:57:49;;;;;;;8.48;7.47;;;;;;;15.09;69.58;96979.63;4929194;28;20297;-87
2023/07/26 05:00:15;;;;;;;7.00;6.30;;;;;;;15.04;69.31;96971.03;4927864;28;20254;-86
2023/07/26 05:02:40;;;;;;;6.78;6.07;;;;;;;15.05;69.37;96981.25;4941747;28;20488;-87
2023/07/26 05:05:06;;;;;;;8.05;6.32;;;;;;;15.03;70.62;96986.00;4935996;28;20700;-87
2023/07/26 05:07:32;;;;;;;8.63;7.38;;;;;;;15.03;70.31;96979.94;4934687;28;20356;-85
2023/07/26 05:09:58;;;;;;;7.50;6.80;;;;;;;15.04;70.95;96982.28;4915819;28;20204;-86
2023/07/26 05:12:24;;;;;;;7.90;7.15;;;;;;;15.11;70.55;96995.88;4918863;28;20191;-86
2023/07/26 05:14:49;;;;;;;8.48;7.68;;;;;;;15.05;69.89;96993.59;4953378;28;20207;-86
2023/07/26 05:17:14;;;;;;;8.13;7.20;;;;;;;15.07;70.09;96992.22;4924884;28;20226;-87
2023/07/26 05:19:40;;;;;;;8.15;7.30;;;;;;;15.05;70.67;96996.97;4957040;28;20405;-87
2023/07/26 05:22:05;;;;;;;7.60;6.75;;;;;;;15.06;70.36;97011.66;4955118;28;20025;-86
2023/07/26 05:24:31;;;;;;;7.70;6.90;;;;;;;15.04;71.23;97005.88;4953886;28;20191;-86
2023/07/26 05:26:58;;;;;;;9.10;7.80;;;;;;;15.08;70.53;97001.66;4950715;28;20025;-86
2023/07/26 05:29:23;;;;;;;8.25;7.45;;;;;;;14.94;71.12;96991.06;4964724;28;20439;-85
2023/07/26 05:31:48;;;;;;;9.05;8.00;;;;;;;15.01;71.39;97001.22;4954251;28;20319;-85
2023/07/26 05:34:15;;;;;;;6.78;6.07;;;;;;;14.95;71.10;96986.59;4951377;28;20379;-86
2023/07/26 05:36:41;;;;;;;6.65;6.00;;;;;;;15.08;71.36;96988.56;4951769;28;20044;-85
2023/07/26 05:39:06;;;;;;;6.97;6.28;;;;;;;15.06;70.89;96990.69;4941186;28;20249;-85
2023/07/26 05:41:31;;;;;;;6.05;5.45;;;;;;;15.05;70.89;96989.09;4964966;28;20496;-85
2023/07/26 05:43:59;;;;;;;5.20;4.70;;;;;;;15.11;70.53;96988.00;4949017;28;20369;-85
2023/07/26 05:46:25;;;;;;;4.70;4.30;;;;;;;15.07;70.35;96987.00;4925908;28;20304;-85
2023/07/26 05:48:50;;;;;;;5.40;4.75;;;;;;;14.99;70.68;96966.59;4960029;28;20207;-85
2023/07/26 05:51:15;;;;;;;5.50;4.65;;;;;;;15.03;70.49;96979.94;4938315;28;20184;-85
2023/07/26 05:53:41;;;;;;;6.22;4.40;;;;;;;15.14;70.62;96991.91;4940565;28;20204;-85
2023/07/26 05:56:07;;;;;;;5.85;4.90;;;;;;;15.06;70.37;96969.72;4927955;28;20185;-85
2023/07/26 05:58:33;;;;;;;6.65;5.70;;;;;;;15.06;70.13;96969.72;4956545;28;20420;-85
2023/07/26 06:00:58;;;;;;;6.93;6.22;;;;;;;15.26;70.91;96989.69;4927733;28;20215;-85
2023/07/26 06:03:24;;;;;;;7.45;6.65;;;;;;;15.39;70.52;97009.22;4959406;28;20157;-85
2023/07/26 06:05:50;;;;;;;7.03;6.32;;;;;;;15.30;70.81;96998.56;4926786;28;20200;-85
2023/07/26 06:08:17;;;;;;;7.13;6.43;;;;;;;15.27;71.64;96991.25;4947836;28;20233;-85
2023/07/26 06:10:43;;;;;;;5.65;5.15;;;;;;;15.41;70.80;97007.09;4922810;28;20339;-85
2023/07/26 06:13:12;;;;;;;6.35;5.78;;;;;;;15.46;70.99;97007.03;4958558;28;20560;-84
2023/07/26 06:15:40;;;;;;;6.43;5.82;;;;;;;15.51;70.98;96993.09;4925836;28;20476;-85
2023/07/26 06:18:05;;;;;;;7.80;6.50;;;;;;;15.59;70.29;97004.78;4936107;28;20636;-84
2023/07/26 06:20:32;;;;;;;7.32;6.22;;;;;;;15.67;70.67;97014.69;4954942;28;20191;-84
2023/07/26 06:22:57;;;;;;;8.02;7.22;;;;;;;15.64;70.85;96999.50;4939962;28;20211;-84
2023/07/26 06:25:23;;;;;;;9.02;7.97;;;;;;;15.82;70.52;97011.91;4926971;28;20209;-84
2023/07/26 06:27:48;;;;;;;10.88;8.68;;;;;;;15.73;71.14;97008.31;4927527;28;20137;-84
2023/07/26 06:30:15;;;;;;;9.85;8.45;;;;;;;15.83;69.85;97010.03;4934211;28;20357;-84
2023/07/26 06:32:42;;;;;;;11.70;9.07;;;;;;;15.82;71.19;97009.28;4957698;28;20259;-85
2023/07/26 06:35:11;;;;;;;10.88;9.23;;;;;;;15.84;70.69;96991.38;4959974;28;20445;-83
2023/07/26 06:37:36;;;;;;;9.13;8.23;;;;;;;15.89;70.59;96996.56;4945787;28;20266;-83
2023/07/26 06:40:02;;;;;;;9.95;8.15;;;;;;;16.09;70.48;97010.47;4935571;28;20161;-84
2023/07/26 06:42:28;;;;;;;9.82;7.90;;;;;;;16.10;70.27;97009.44;4968523;28;20314;-83
2023/07/26 06:44:53;;;;;;;9.82;8.55;;;;;;;16.13;70.62;97003.63;4943038;28;20186;-83
2023/07/26 06:47:19;;;;;;;10.48;9.20;;;;;;;16.23;70.14;97008.72;4965007;28;20167;-84
2023/07/26 06:49:44;;;;;;;10.30;9.20;;;;;;;16.32;70.31;97023.84;4944094;28;20248;-84
2023/07/26 06:52:10;;;;;;;9.63;8.73;;;;;;;16.27;69.41;97017.59;4946980;28;20346;-84
2023/07/26 06:54:38;;;;;;;9.98;8.50;;;;;;;16.38;70.11;97027.94;4945176;28;20244;-83
2023/07/26 06:57:05;;;;;;;10.18;8.85;;;;;;;16.29;70.56;97022.56;4940417;28;20192;-83
2023/07/26 06:59:30;;;;;;;10.15;9.10;;;;;;;16.29;70.84;97025.97;4949269;28;20184;-83
2023/07/26 07:01:57;;;;;;;11.70;9.77;;;;;;;16.31;70.81;97023.06;4961641;28;20136;-83
2023/07/26 07:04:23;;;;;;;9.75;8.82;;;;;;;16.37;70.53;97032.44;4945940;28;20189;-83
2023/07/26 07:06:48;;;;;;;10.05;9.05;;;;;;;16.32;70.26;97032.50;4944053;28;20188;-83
2023/07/26 07:09:15;;;;;;;10.60;9.07;;;;;;;16.41;70.58;97032.66;4943829;28;20184;-85
2023/07/26 07:11:43;;;;;;;11.52;10.00;;;;;;;16.51;70.56;97021.97;4988468;28;20637;-84
2023/07/26 07:14:09;;;;;;;10.05;8.68;;;;;;;16.59;70.06;97023.19;5001008;28;20079;-86
2023/07/26 07:16:34;;;;;;;10.43;9.13;;;;;;;16.49;70.34;97010.97;4986522;28;20348;-84
2023/07/26 07:19:00;;;;;;;10.23;8.60;;;;;;;16.71;70.47;97020.91;4959001;28;20339;-84
2023/07/26 07:21:26;;;;;;;10.00;9.02;;;;;;;16.87;70.26;97034.59;4955612;28;20273;-83
2023/07/26 07:23:53;;;;;;;9.30;8.00;;;;;;;16.94;69.81;97021.84;4955629;28;20194;-83
2023/07/26 07:26:19;;;;;;;8.93;8.00;;;;;;;17.14;69.12;97012.81;4981853;28;20080;-85
2023/07/26 07:28:44;;;;;;;9.38;7.65;;;;;;;17.30;68.21;97025.72;4977340;28;20178;-85
2023/07/26 07:31:10;;;;;;;8.88;8.07;;;;;;;17.31;68.73;97028.06;5008017;28;20110;-85
2023/07/26 07:33:36;;;;;;;7.80;7.00;;;;;;;17.31;68.70;97022.78;4961022;28;20211;-85
2023/07/26 07:36:04;;;;;;;8.02;7.30;;;;;;;17.38;68.43;97027.66;5005030;28;20034;-85
2023/07/26 07:38:31;;;;;;;8.07;6.97;;;;;;;17.59;68.30;97038.59;4983159;28;20252;-86
2023/07/26 07:40:56;;;;;;;7.43;6.80;;;;;;;17.59;67.72;97031.47;4989283;28;20102;-85
2023/07/26 07:43:22;;;;;;;7.07;6.45;;;;;;;17.51;68.15;97005.03;4986497;28;20018;-87
2023/07/26 07:45:47;;;;;;;6.72;6.00;;;;;;;17.79;66.69;97021.63;4971403;28;20315;-87
2023/07/26 07:48:13;;;;;;;6.70;6.10;;;;;;;18.00;65.93;97032.53;4974134;28;20281;-84
2023/07/26 07:50:38;;;;;;;6.15;5.60;;;;;;;18.08;65.96;97013.41;5006558;28;20226;-88
2023/07/26 07:53:04;;;;;;;6.50;5.90;;;;;;;18.37;65.15;97035.97;4995970;28;20173;-87
2023/07/26 07:55:34;;;;;;;6.03;5.53;;;;;;;18.43;63.37;97018.94;4982658;28;20186;-87
2023/07/26 07:58:01;;;;;;;5.55;5.05;;;;;;;18.31;61.56;97034.50;4975289;28;20110;-86
2023/07/26 08:00:26;;;;;;;6.22;5.57;;;;;;;18.26;62.96;97030.13;4978618;28;20045;-86
2023/07/26 08:02:51;;;;;;;5.57;5.10;;;;;;;18.32;61.88;97031.56;4964115;28;20245;-88
2023/07/26 08:05:17;;;;;;;5.70;5.10;;;;;;;18.25;64.79;97033.06;4939979;28;20198;-87
2023/07/26 08:07:42;;;;;;;6.32;5.72;;;;;;;18.28;65.35;97038.53;4948433;28;20238;-88
2023/07/26 08:10:08;;;;;;;5.95;5.45;;;;;;;18.24;63.38;97042.06;4959511;28;20040;-87
2023/07/26 08:12:35;;;;;;;5.45;4.90;;;;;;;18.27;61.47;97036.19;4947253;28;20157;-89
2023/07/26 08:15:00;;;;;;;5.82;5.22;;;;;;;18.36;60.73;97026.50;4971792;28;20605;-88
2023/07/26 08:17:26;;;;;;;4.50;4.10;;;;;;;18.70;60.90;97043.66;4968767;28;20200;-86
2023/07/26 08:19:51;;;;;;;6.45;5.85;;;;;;;18.90;61.20;97022.09;4931375;28;20124;-87
2023/07/26 08:22:17;;;;;;;6.65;4.35;;;;;;;19.15;58.48;97038.34;4926513;28;20041;-88
2023/07/26 08:24:42;;;;;;;4.85;4.45;;;;;;;19.15;59.09;97033.06;4951045;28;20356;-87
2023/07/26 08:27:07;;;;;;;4.85;4.35;;;;;;;19.26;58.63;97031.72;4959757;28;20203;-87
2023/07/26 08:29:33;;;;;;;4.30;4.00;;;;;;;19.34;59.06;97042.63;4955586;28;20289;-86
2023/07/26 08:31:58;;;;;;;4.45;4.05;;;;;;;19.32;59.44;97037.66;4920419;28;20300;-86
2023/07/26 08:34:24;;;;;;;4.85;4.13;;;;;;;19.37;58.14;97057.88;4941471;28;20142;-86
2023/07/26 08:36:49;;;;;;;4.18;3.78;;;;;;;19.53;58.81;97050.31;4951073;28;20353;-86
2023/07/26 08:39:15;;;;;;;3.78;3.47;;;;;;;19.61;58.34;97050.34;4937536;28;20451;-87
2023/07/26 08:41:40;;;;;;;4.45;4.05;;;;;;;19.68;57.81;97052.53;4955326;28;20999;-87
2023/07/26 08:44:07;;;;;;;4.18;3.88;;;;;;;19.87;56.91;97043.59;4935353;28;20087;-86
2023/07/26 08:46:33;;;;;;;4.53;4.13;;;;;;;19.97;57.48;97057.28;4937170;28;20277;-86
2023/07/26 08:48:59;;;;;;;3.72;3.38;;;;;;;20.11;56.98;97051.88;4938204;28;20313;-87
2023/07/26 08:51:25;;;;;;;3.85;3.55;;;;;;;19.91;57.76;97057.75;4961962;28;20021;-88
2023/07/26 08:53:51;;;;;;;3.38;2.97;;;;;;;20.05;55.65;97054.97;4957513;28;20157;-86
2023/07/26 08:56:17;;;;;;;3.45;3.15;;;;;;;19.98;56.71;97053.59;4965492;28;20412;-88
2023/07/26 08:58:43;;;;;;;4.70;4.30;;;;;;;19.71;59.43;97035.31;4978704;28;20256;-86
2023/07/26 09:01:09;;;;;;;3.15;2.85;;;;;;;20.05;55.09;97057.63;4940249;28;20282;-87
2023/07/26 09:03:35;;;;;;;3.53;3.22;;;;;;;20.03;54.89;97057.91;4928939;28;20528;-87
2023/07/26 09:06:05;;;;;;;5.25;4.00;;;;;;;19.74;57.13;97053.16;4946612;28;20203;-86
2023/07/26 09:08:31;;;;;;;3.63;3.35;;;;;;;19.86;56.58;97056.03;4975761;28;20109;-84
2023/07/26 09:10:56;;;;;;;3.50;3.20;;;;;;;20.01;53.38;97052.16;4963805;28;20185;-86
2023/07/26 09:13:22;;;;;;;3.80;3.30;;;;;;;20.02;53.47;97041.28;4946213;28;20249;-86
2023/07/26 09:15:47;;;;;;;3.20;3.00;;;;;;;20.14;53.69;97055.78;4943059;28;20333;-86
2023/07/26 09:18:14;;;;;;;3.28;2.95;;;;;;;19.96;53.96;97057.59;4961316;28;20105;-87
2023/07/26 09:20:40;;;;;;;3.60;3.30;;;;;;;20.05;52.63;97041.75;4933016;28;20258;-87
2023/07/26 09:23:06;;;;;;;4.30;3.22;;;;;;;20.47;53.93;97057.97;4930403;28;20136;-85
2023/07/26 09:25:40;;;;;;;3.08;2.88;;;;;;;20.65;51.65;97048.97;4954713;28;20241;-85
2023/07/26 09:28:07;;;;;;;3.35;3.10;;;;;;;20.51;50.59;97061.53;4995742;28;20210;-86
2023/07/26 09:30:41;;;;;;;2.83;2.50;;;;;;;20.46;52.33;97056.41;4975592;28;20165;-86
2023/07/26 09:33:09;;;;;;;4.28;3.00;;;;;;;20.29;52.94;97063.25;4972109;28;20210;-85
2023/07/26 09:35:45;;;;;;;3.33;3.00;;;;;;;20.21;51.90;97061.38;4972935;28;20354;-88
2023/07/26 09:38:15;;;;;;;3.53;2.72;;;;;;;20.13;51.87;97048.94;4984788;28;20369;-86
2023/07/26 09:40:41;;;;;;;2.85;2.65;;;;;;;20.06;51.70;97061.81;4971829;28;20032;-87
2023/07/26 09:43:07;;;;;;;3.90;2.58;;;;;;;19.99;51.58;97062.28;4982633;28;20152;-86
2023/07/26 09:45:33;;;;;;;2.53;2.33;;;;;;;19.88;51.51;97055.72;4965797;28;20168;-85
2023/07/26 09:48:09;;;;;;;4.22;2.45;;;;;;;19.93;51.86;97058.22;4962419;28;20293;-85
2023/07/26 09:50:38;;;;;;;2.85;2.65;;;;;;;19.68;51.85;97038.56;4962870;28;20093;-85
2023/07/26 09:53:05;;;;;;;3.10;2.90;;;;;;;19.91;52.75;97063.03;4941603;28;20268;-85
2023/07/26 09:55:31;;;;;;;4.35;2.80;;;;;;;20.08;53.10;97062.28;4947419;28;20304;-85
2023/07/26 09:57:57;;;;;;;3.67;3.38;;;;;;;20.31;53.14;97069.00;4971774;28;20201;-86
2023/07/26 10:00:26;;;;;;;4.50;2.88;;;;;;;20.47;50.61;97047.41;4985576;28;20140;-84
2023/07/26 10:03:13;;;;;;;2.88;2.67;;;;;;;20.67;49.87;97059.25;4964101;28;20250;-85
2023/07/26 10:05:43;;;;;;;4.38;2.88;;;;;;;20.53;53.02;97057.50;4980553;28;20297;-87
2023/07/26 10:08:09;;;;;;;2.60;2.40;;;;;;;20.65;49.05;97059.56;4963157;28;20217;-85
2023/07/26 10:10:34;;;;;;;3.20;2.90;;;;;;;20.46;48.56;97048.47;4981639;28;20086;-86
2023/07/26 10:13:00;;;;;;;3.22;2.90;;;;;;;20.38;50.58;97040.22;4987233;28;20195;-84
2023/07/26 10:15:30;;;;;;;3.30;3.00;;;;;;;20.37;50.48;97067.78;4963740;28;20166;-86
2023/07/26 10:17:55;;;;;;;3.33;2.70;;;;;;;20.29;49.77;97041.31;4979020;28;20127;-84
2023/07/26 10:20:21;;;;;;;2.58;2.33;;;;;;;20.48;50.28;97051.59;4972459;28;20213;-84
2023/07/26 10:22:48;;;;;;;3.08;2.70;;;;;;;20.39;50.00;97036.50;4999543;28;20619;-84
2023/07/26 10:25:14;;;;;;;3.90;3.00;;;;;;;20.49;49.57;97055.78;4998892;28;20271;-86
2023/07/26 10:27:40;;;;;;;3.85;2.42;;;;;;;20.45;49.81;97045.06;4964663;28;20037;-84
2023/07/26 10:30:06;;;;;;;4.30;3.35;;;;;;;20.32;47.18;97022.97;4949321;28;20337;-85
2023/07/26 10:32:39;;;;;;;3.25;2.83;;;;;;;20.56;50.05;97046.31;4947640;28;20351;-84
2023/07/26 10:35:04;;;;;;;3.03;2.72;;;;;;;20.53;48.48;97039.00;4993143;28;20029;-87
2023/07/26 10:37:32;;;;;;;2.85;2.55;;;;;;;20.65;49.51;97048.97;4945606;28;20192;-85
2023/07/26 10:39:58;;;;;;;2.90;2.50;;;;;;;20.65;47.94;97033.09;4984023;28;20566;-85
2023/07/26 10:42:28;;;;;;;3.08;2.78;;;;;;;20.92;50.37;97053.16;4995478;28;20243;-83
2023/07/26 10:44:56;;;;;;;3.55;2.90;;;;;;;21.02;48.30;97054.66;4992749;28;20102;-86
2023/07/26 10:47:21;;;;;;;4.45;2.90;;;;;;;21.07;48.65;97059.03;4981300;28;20030;-85
2023/07/26 10:49:47;;;;;;;2.92;2.72;;;;;;;21.20;46.52;97057.25;4956181;28;20150;-87
2023/07/26 10:52:13;;;;;;;3.42;3.13;;;;;;;21.42;46.23;97050.97;4985131;28;20048;-84
2023/07/26 10:54:41;;;;;;;2.90;2.70;;;;;;;21.44;46.62;97033.66;4970458;28;20267;-85
2023/07/26 10:57:17;;;;;;;3.15;2.83;;;;;;;21.64;45.55;97044.66;4975565;28;20273;-84
2023/07/26 10:59:58;;;;;;;3.65;2.70;;;;;;;21.70;46.42;97048.69;5004084;28;20244;-85
2023/07/26 11:02:49;;;;;;;3.30;2.85;;;;;;;21.30;45.86;97041.03;4979587;28;20161;-85
2023/07/26 11:05:14;;;;;;;3.63;2.83;;;;;;;20.92;47.58;97039.13;4971588;28;20261;-85
2023/07/26 11:07:49;;;;;;;4.35;2.70;;;;;;;20.97;46.04;97043.47;4988567;28;20298;-88
2023/07/26 11:10:23;;;;;;;3.08;2.78;;;;;;;21.02;47.41;97038.78;4994462;28;20177;-83
2023/07/26 11:13:05;;;;;;;3.20;2.90;;;;;;;20.82;47.56;97015.63;5573644;22;21015;-82
2023/07/26 11:15:32;;;;;;;3.45;2.42;;;;;;;20.90;47.96;97036.00;5176878;23;20075;-84
2023/07/26 11:17:58;;;;;;;3.33;2.83;;;;;;;21.40;48.02;97032.72;5109728;23;20700;-86
2023/07/26 11:20:23;;;;;;;3.35;2.70;;;;;;;21.67;47.46;97017.53;4971695;28;20106;-84
2023/07/26 11:22:48;;;;;;;3.65;2.80;;;;;;;21.85;46.70;97026.94;4973354;28;20195;-84
2023/07/26 11:25:14;;;;;;;4.60;2.85;;;;;;;22.24;44.84;97032.13;4975674;28;20212;-85
2023/07/26 11:27:40;;;;;;;3.40;3.10;;;;;;;22.16;44.70;97009.88;4981791;28;20572;-86